East Enosburg, Vermont
Current Conditions -  °F | °C
As of 9:55 PM on Tuesday 21 Oct 2014 (Local Time) from KFSO Reporting Station
Light Rain Light Rain  
Wind Chill: 41°   Ceiling: 500
Heat Index: 45°   Visibility: 5mi
Dew Point: 44°   Wind: 8mph
Humidity: 97%   Direction: 360°N
Pressure: 30.1"   Gusts: NA
Location:  44.8764°N, 72.758°W
Report Text: KFSO 220155Z AUTO 36007KT 5SM -RA BKN005 BKN012 OVC045 07/07 A3010 RMK AO2 T00720068
Loading
Personal Weather Stations






























Interactive Weather Map New forecast layout! Learn more

10-Day Weather Forecast

Advertisements
Track Severe Weather on mobile